sensor_id;sensor_type;location;lat;lon;timestamp;P1;durP1;ratioP1;P2;durP2;ratioP2
29774;SDS011;16676;51.202;6.774;2022-10-12T00:00:53;7.10;;;4.22;;
29774;SDS011;16676;51.202;6.774;2022-10-12T00:04:56;8.10;;;4.38;;
29774;SDS011;16676;51.202;6.774;2022-10-12T00:08:59;8.82;;;4.60;;
29774;SDS011;16676;51.202;6.774;2022-10-12T00:13:01;8.40;;;4.40;;
29774;SDS011;16676;51.202;6.774;2022-10-12T00:17:03;7.97;;;3.85;;
29774;SDS011;16676;51.202;6.774;2022-10-12T00:21:06;8.02;;;4.22;;
29774;SDS011;16676;51.202;6.774;2022-10-12T00:25:10;9.07;;;4.15;;
29774;SDS011;16676;51.202;6.774;2022-10-12T00:29:13;9.88;;;4.50;;
29774;SDS011;16676;51.202;6.774;2022-10-12T00:33:14;8.48;;;4.20;;
29774;SDS011;16676;51.202;6.774;2022-10-12T00:37:16;9.05;;;4.40;;
29774;SDS011;16676;51.202;6.774;2022-10-12T00:41:21;7.65;;;4.20;;
29774;SDS011;16676;51.202;6.774;2022-10-12T00:45:25;9.48;;;4.40;;
29774;SDS011;16676;51.202;6.774;2022-10-12T00:49:27;8.18;;;3.80;;
29774;SDS011;16676;51.202;6.774;2022-10-12T00:53:30;8.95;;;4.32;;
29774;SDS011;16676;51.202;6.774;2022-10-12T01:01:40;8.02;;;3.88;;
29774;SDS011;16676;51.202;6.774;2022-10-12T01:05:42;8.88;;;4.00;;
29774;SDS011;16676;51.202;6.774;2022-10-12T01:09:44;8.18;;;4.10;;
29774;SDS011;16676;51.202;6.774;2022-10-12T01:13:48;7.30;;;3.88;;
29774;SDS011;16676;51.202;6.774;2022-10-12T01:17:52;6.25;;;3.50;;
29774;SDS011;16676;51.202;6.774;2022-10-12T01:22:04;8.10;;;3.53;;
29774;SDS011;16676;51.202;6.774;2022-10-12T01:26:22;7.90;;;4.38;;
29774;SDS011;16676;51.202;6.774;2022-10-12T01:30:42;9.07;;;3.90;;
29774;SDS011;16676;51.202;6.774;2022-10-12T01:34:51;6.50;;;3.65;;
29774;SDS011;16676;51.202;6.774;2022-10-12T01:38:58;6.13;;;3.65;;
29774;SDS011;16676;51.202;6.774;2022-10-12T01:43:08;7.03;;;3.85;;
29774;SDS011;16676;51.202;6.774;2022-10-12T01:47:12;8.23;;;3.92;;
29774;SDS011;16676;51.202;6.774;2022-10-12T01:51:15;8.10;;;3.38;;
29774;SDS011;16676;51.202;6.774;2022-10-12T01:55:25;7.45;;;3.53;;
29774;SDS011;16676;51.202;6.774;2022-10-12T01:59:38;7.07;;;3.40;;
29774;SDS011;16676;51.202;6.774;2022-10-12T02:03:50;6.78;;;3.70;;
29774;SDS011;16676;51.202;6.774;2022-10-12T02:08:02;6.28;;;3.10;;
29774;SDS011;16676;51.202;6.774;2022-10-12T02:12:12;7.28;;;3.42;;
29774;SDS011;16676;51.202;6.774;2022-10-12T02:16:18;5.95;;;3.63;;
29774;SDS011;16676;51.202;6.774;2022-10-12T02:20:23;7.07;;;3.42;;
29774;SDS011;16676;51.202;6.774;2022-10-12T02:24:27;7.63;;;3.70;;
29774;SDS011;16676;51.202;6.774;2022-10-12T02:28:31;5.97;;;3.35;;
29774;SDS011;16676;51.202;6.774;2022-10-12T02:32:36;8.13;;;3.70;;
29774;SDS011;16676;51.202;6.774;2022-10-12T02:36:45;6.70;;;3.17;;
29774;SDS011;16676;51.202;6.774;2022-10-12T02:44:54;6.97;;;3.30;;
29774;SDS011;16676;51.202;6.774;2022-10-12T02:48:59;7.18;;;3.50;;
29774;SDS011;16676;51.202;6.774;2022-10-12T02:53:04;5.15;;;3.30;;
29774;SDS011;16676;51.202;6.774;2022-10-12T02:57:07;5.13;;;3.25;;
29774;SDS011;16676;51.202;6.774;2022-10-12T03:01:09;7.90;;;3.45;;
29774;SDS011;16676;51.202;6.774;2022-10-12T03:05:11;5.22;;;3.20;;
29774;SDS011;16676;51.202;6.774;2022-10-12T03:09:15;6.57;;;3.53;;
29774;SDS011;16676;51.202;6.774;2022-10-12T03:13:18;7.60;;;3.50;;
29774;SDS011;16676;51.202;6.774;2022-10-12T03:17:19;7.05;;;3.45;;
29774;SDS011;16676;51.202;6.774;2022-10-12T03:21:21;6.07;;;3.28;;
29774;SDS011;16676;51.202;6.774;2022-10-12T03:25:25;7.63;;;3.35;;
29774;SDS011;16676;51.202;6.774;2022-10-12T03:29:27;6.00;;;3.10;;
29774;SDS011;16676;51.202;6.774;2022-10-12T03:33:29;5.72;;;3.20;;
29774;SDS011;16676;51.202;6.774;2022-10-12T03:37:31;8.30;;;3.15;;
29774;SDS011;16676;51.202;6.774;2022-10-12T03:41:34;6.82;;;3.25;;
29774;SDS011;16676;51.202;6.774;2022-10-12T03:45:36;6.78;;;3.10;;
29774;SDS011;16676;51.202;6.774;2022-10-12T03:49:38;4.45;;;2.60;;
29774;SDS011;16676;51.202;6.774;2022-10-12T03:53:40;6.75;;;3.20;;
29774;SDS011;16676;51.202;6.774;2022-10-12T03:57:43;5.95;;;3.20;;
29774;SDS011;16676;51.202;6.774;2022-10-12T04:01:45;6.03;;;3.05;;
29774;SDS011;16676;51.202;6.774;2022-10-12T04:05:51;6.50;;;3.17;;
29774;SDS011;16676;51.202;6.774;2022-10-12T04:09:54;8.93;;;3.55;;
29774;SDS011;16676;51.202;6.774;2022-10-12T04:13:57;7.40;;;3.00;;
29774;SDS011;16676;51.202;6.774;2022-10-12T04:17:59;6.13;;;3.05;;
29774;SDS011;16676;51.202;6.774;2022-10-12T04:22:01;6.57;;;3.22;;
29774;SDS011;16676;51.202;6.774;2022-10-12T04:26:03;7.25;;;3.30;;
29774;SDS011;16676;51.202;6.774;2022-10-12T04:30:08;6.35;;;3.60;;
29774;SDS011;16676;51.202;6.774;2022-10-12T04:34:11;5.40;;;2.88;;
29774;SDS011;16676;51.202;6.774;2022-10-12T04:38:13;5.43;;;2.92;;
29774;SDS011;16676;51.202;6.774;2022-10-12T04:42:15;5.75;;;2.80;;
29774;SDS011;16676;51.202;6.774;2022-10-12T04:46:19;4.75;;;2.60;;
29774;SDS011;16676;51.202;6.774;2022-10-12T04:50:21;5.70;;;3.17;;
29774;SDS011;16676;51.202;6.774;2022-10-12T04:54:23;7.65;;;3.25;;
29774;SDS011;16676;51.202;6.774;2022-10-12T04:58:25;6.78;;;3.15;;
29774;SDS011;16676;51.202;6.774;2022-10-12T05:02:28;6.72;;;3.00;;
29774;SDS011;16676;51.202;6.774;2022-10-12T05:06:30;4.78;;;2.70;;
29774;SDS011;16676;51.202;6.774;2022-10-12T05:10:32;5.30;;;2.28;;
29774;SDS011;16676;51.202;6.774;2022-10-12T05:14:34;5.80;;;2.67;;
29774;SDS011;16676;51.202;6.774;2022-10-12T05:18:38;5.65;;;3.08;;
29774;SDS011;16676;51.202;6.774;2022-10-12T05:22:40;6.68;;;2.78;;
29774;SDS011;16676;51.202;6.774;2022-10-12T05:26:42;5.95;;;2.83;;
29774;SDS011;16676;51.202;6.774;2022-10-12T05:30:47;9.25;;;2.95;;
29774;SDS011;16676;51.202;6.774;2022-10-12T05:34:51;6.78;;;3.10;;
29774;SDS011;16676;51.202;6.774;2022-10-12T05:38:54;7.15;;;3.03;;
29774;SDS011;16676;51.202;6.774;2022-10-12T05:42:56;5.05;;;2.85;;
29774;SDS011;16676;51.202;6.774;2022-10-12T05:46:58;6.28;;;2.78;;
29774;SDS011;16676;51.202;6.774;2022-10-12T05:51:01;6.78;;;2.60;;
29774;SDS011;16676;51.202;6.774;2022-10-12T05:55:03;4.25;;;2.60;;
29774;SDS011;16676;51.202;6.774;2022-10-12T05:59:06;8.25;;;2.97;;
29774;SDS011;16676;51.202;6.774;2022-10-12T06:03:08;8.02;;;3.45;;
29774;SDS011;16676;51.202;6.774;2022-10-12T06:07:11;7.20;;;3.42;;
29774;SDS011;16676;51.202;6.774;2022-10-12T06:11:13;7.45;;;3.17;;
29774;SDS011;16676;51.202;6.774;2022-10-12T06:15:16;10.35;;;3.33;;
29774;SDS011;16676;51.202;6.774;2022-10-12T06:19:18;10.70;;;3.38;;
29774;SDS011;16676;51.202;6.774;2022-10-12T06:23:21;11.23;;;3.13;;
29774;SDS011;16676;51.202;6.774;2022-10-12T06:27:23;6.53;;;2.90;;
29774;SDS011;16676;51.202;6.774;2022-10-12T06:31:25;8.65;;;3.35;;
29774;SDS011;16676;51.202;6.774;2022-10-12T06:35:27;9.73;;;4.20;;
29774;SDS011;16676;51.202;6.774;2022-10-12T06:39:31;9.30;;;3.42;;
29774;SDS011;16676;51.202;6.774;2022-10-12T06:43:33;10.95;;;3.85;;
29774;SDS011;16676;51.202;6.774;2022-10-12T06:47:35;9.60;;;4.00;;
29774;SDS011;16676;51.202;6.774;2022-10-12T06:51:37;6.10;;;3.10;;
29774;SDS011;16676;51.202;6.774;2022-10-12T06:55:40;7.65;;;2.85;;
29774;SDS011;16676;51.202;6.774;2022-10-12T06:59:42;5.47;;;3.10;;
29774;SDS011;16676;51.202;6.774;2022-10-12T07:03:44;9.55;;;3.30;;
29774;SDS011;16676;51.202;6.774;2022-10-12T07:07:46;6.40;;;2.80;;
29774;SDS011;16676;51.202;6.774;2022-10-12T07:11:49;6.32;;;2.92;;
29774;SDS011;16676;51.202;6.774;2022-10-12T07:15:51;6.95;;;2.85;;
29774;SDS011;16676;51.202;6.774;2022-10-12T07:19:53;9.73;;;2.83;;
29774;SDS011;16676;51.202;6.774;2022-10-12T07:23:55;8.68;;;3.13;;
29774;SDS011;16676;51.202;6.774;2022-10-12T07:27:59;6.15;;;2.70;;
29774;SDS011;16676;51.202;6.774;2022-10-12T07:32:02;4.63;;;2.50;;
29774;SDS011;16676;51.202;6.774;2022-10-12T07:36:05;4.22;;;2.30;;
29774;SDS011;16676;51.202;6.774;2022-10-12T07:40:08;5.00;;;2.35;;
29774;SDS011;16676;51.202;6.774;2022-10-12T07:44:11;5.95;;;2.67;;
29774;SDS011;16676;51.202;6.774;2022-10-12T07:48:14;5.82;;;2.33;;
29774;SDS011;16676;51.202;6.774;2022-10-12T07:52:16;5.80;;;2.50;;
29774;SDS011;16676;51.202;6.774;2022-10-12T07:56:18;4.50;;;2.17;;
29774;SDS011;16676;51.202;6.774;2022-10-12T08:00:21;5.38;;;2.13;;
29774;SDS011;16676;51.202;6.774;2022-10-12T08:04:23;6.10;;;2.33;;
29774;SDS011;16676;51.202;6.774;2022-10-12T08:08:25;6.70;;;2.30;;
29774;SDS011;16676;51.202;6.774;2022-10-12T08:12:27;5.35;;;1.98;;
29774;SDS011;16676;51.202;6.774;2022-10-12T08:16:30;3.95;;;1.90;;
29774;SDS011;16676;51.202;6.774;2022-10-12T08:20:32;4.03;;;2.10;;
29774;SDS011;16676;51.202;6.774;2022-10-12T08:24:34;4.35;;;2.10;;
29774;SDS011;16676;51.202;6.774;2022-10-12T08:28:36;4.93;;;2.33;;
29774;SDS011;16676;51.202;6.774;2022-10-12T08:32:39;4.10;;;2.00;;
29774;SDS011;16676;51.202;6.774;2022-10-12T08:36:41;6.30;;;1.95;;
29774;SDS011;16676;51.202;6.774;2022-10-12T08:40:46;4.65;;;2.20;;
29774;SDS011;16676;51.202;6.774;2022-10-12T08:44:57;4.63;;;1.90;;
29774;SDS011;16676;51.202;6.774;2022-10-12T08:49:11;4.80;;;2.05;;
29774;SDS011;16676;51.202;6.774;2022-10-12T08:53:18;3.67;;;1.70;;
29774;SDS011;16676;51.202;6.774;2022-10-12T08:57:25;3.47;;;1.92;;
29774;SDS011;16676;51.202;6.774;2022-10-12T09:01:27;5.03;;;1.80;;
29774;SDS011;16676;51.202;6.774;2022-10-12T09:05:38;3.97;;;1.92;;
29774;SDS011;16676;51.202;6.774;2022-10-12T09:09:51;3.85;;;1.85;;
29774;SDS011;16676;51.202;6.774;2022-10-12T09:14:02;3.05;;;1.60;;
29774;SDS011;16676;51.202;6.774;2022-10-12T09:18:10;2.75;;;1.65;;
29774;SDS011;16676;51.202;6.774;2022-10-12T09:22:18;3.03;;;1.67;;
29774;SDS011;16676;51.202;6.774;2022-10-12T09:26:29;2.58;;;1.27;;
29774;SDS011;16676;51.202;6.774;2022-10-12T09:30:34;3.50;;;1.42;;
29774;SDS011;16676;51.202;6.774;2022-10-12T09:34:41;3.27;;;1.60;;
29774;SDS011;16676;51.202;6.774;2022-10-12T09:38:45;3.08;;;1.42;;
29774;SDS011;16676;51.202;6.774;2022-10-12T09:42:48;3.63;;;1.67;;
29774;SDS011;16676;51.202;6.774;2022-10-12T09:46:53;3.33;;;1.67;;
29774;SDS011;16676;51.202;6.774;2022-10-12T09:50:56;3.85;;;1.60;;
29774;SDS011;16676;51.202;6.774;2022-10-12T09:55:03;4.15;;;1.77;;
29774;SDS011;16676;51.202;6.774;2022-10-12T09:59:16;4.60;;;1.50;;
29774;SDS011;16676;51.202;6.774;2022-10-12T10:03:25;3.80;;;1.63;;
29774;SDS011;16676;51.202;6.774;2022-10-12T10:07:28;5.63;;;1.50;;
29774;SDS011;16676;51.202;6.774;2022-10-12T10:11:33;2.47;;;1.33;;
29774;SDS011;16676;51.202;6.774;2022-10-12T10:15:36;7.13;;;1.92;;
29774;SDS011;16676;51.202;6.774;2022-10-12T10:19:38;3.13;;;1.75;;
29774;SDS011;16676;51.202;6.774;2022-10-12T10:23:41;5.60;;;2.00;;
29774;SDS011;16676;51.202;6.774;2022-10-12T10:27:46;5.40;;;2.00;;
29774;SDS011;16676;51.202;6.774;2022-10-12T10:31:51;5.07;;;1.88;;
29774;SDS011;16676;51.202;6.774;2022-10-12T10:36:13;5.35;;;1.90;;
29774;SDS011;16676;51.202;6.774;2022-10-12T10:40:21;3.15;;;1.52;;
29774;SDS011;16676;51.202;6.774;2022-10-12T10:44:28;4.45;;;1.88;;
29774;SDS011;16676;51.202;6.774;2022-10-12T10:48:33;8.10;;;2.60;;
29774;SDS011;16676;51.202;6.774;2022-10-12T10:52:51;9.00;;;3.10;;
29774;SDS011;16676;51.202;6.774;2022-10-12T10:56:58;6.33;;;2.50;;
29774;SDS011;16676;51.202;6.774;2022-10-12T11:01:05;5.07;;;2.38;;
29774;SDS011;16676;51.202;6.774;2022-10-12T11:05:15;5.90;;;2.67;;
29774;SDS011;16676;51.202;6.774;2022-10-12T11:09:22;4.25;;;2.20;;
29774;SDS011;16676;51.202;6.774;2022-10-12T11:13:30;9.95;;;3.22;;
29774;SDS011;16676;51.202;6.774;2022-10-12T11:17:37;9.15;;;2.85;;
29774;SDS011;16676;51.202;6.774;2022-10-12T11:21:44;6.10;;;2.78;;
29774;SDS011;16676;51.202;6.774;2022-10-12T11:30:20;9.15;;;2.65;;
29774;SDS011;16676;51.202;6.774;2022-10-12T11:34:24;12.05;;;4.47;;
29774;SDS011;16676;51.202;6.774;2022-10-12T11:38:29;15.25;;;6.18;;
29774;SDS011;16676;51.202;6.774;2022-10-12T11:42:36;18.13;;;5.55;;
29774;SDS011;16676;51.202;6.774;2022-10-12T11:46:43;16.63;;;5.88;;
29774;SDS011;16676;51.202;6.774;2022-10-12T11:50:50;22.42;;;6.85;;
29774;SDS011;16676;51.202;6.774;2022-10-12T11:54:54;19.70;;;5.20;;
29774;SDS011;16676;51.202;6.774;2022-10-12T11:59:02;14.63;;;4.72;;
29774;SDS011;16676;51.202;6.774;2022-10-12T12:03:12;11.77;;;3.78;;
29774;SDS011;16676;51.202;6.774;2022-10-12T12:07:45;11.90;;;3.90;;
29774;SDS011;16676;51.202;6.774;2022-10-12T12:11:48;12.85;;;3.60;;
29774;SDS011;16676;51.202;6.774;2022-10-12T12:25:15;10.65;;;3.85;;
29774;SDS011;16676;51.202;6.774;2022-10-12T12:29:22;8.63;;;3.38;;
29774;SDS011;16676;51.202;6.774;2022-10-12T12:33:29;9.52;;;3.60;;
29774;SDS011;16676;51.202;6.774;2022-10-12T12:37:32;8.15;;;2.95;;
29774;SDS011;16676;51.202;6.774;2022-10-12T12:41:46;7.10;;;2.95;;
29774;SDS011;16676;51.202;6.774;2022-10-12T12:45:52;10.50;;;3.15;;
29774;SDS011;16676;51.202;6.774;2022-10-12T12:49:56;9.10;;;3.33;;
29774;SDS011;16676;51.202;6.774;2022-10-12T12:54:00;8.90;;;3.20;;
29774;SDS011;16676;51.202;6.774;2022-10-12T12:58:09;7.70;;;3.20;;
29774;SDS011;16676;51.202;6.774;2022-10-12T13:02:34;9.15;;;3.55;;
29774;SDS011;16676;51.202;6.774;2022-10-12T13:07:11;7.53;;;3.03;;
29774;SDS011;16676;51.202;6.774;2022-10-12T13:11:41;7.55;;;3.30;;
29774;SDS011;16676;51.202;6.774;2022-10-12T13:16:00;7.82;;;3.17;;
29774;SDS011;16676;51.202;6.774;2022-10-12T13:20:14;10.18;;;3.10;;
29774;SDS011;16676;51.202;6.774;2022-10-12T13:24:19;8.65;;;3.05;;
29774;SDS011;16676;51.202;6.774;2022-10-12T13:28:24;9.80;;;3.20;;
29774;SDS011;16676;51.202;6.774;2022-10-12T13:32:32;7.07;;;3.10;;
29774;SDS011;16676;51.202;6.774;2022-10-12T13:36:47;7.63;;;2.90;;
29774;SDS011;16676;51.202;6.774;2022-10-12T13:40:54;11.35;;;3.50;;
29774;SDS011;16676;51.202;6.774;2022-10-12T13:45:02;10.13;;;2.90;;
29774;SDS011;16676;51.202;6.774;2022-10-12T13:49:12;8.00;;;3.08;;
29774;SDS011;16676;51.202;6.774;2022-10-12T13:57:18;6.78;;;2.83;;
29774;SDS011;16676;51.202;6.774;2022-10-12T14:01:23;8.60;;;3.30;;
29774;SDS011;16676;51.202;6.774;2022-10-12T14:05:27;11.65;;;3.28;;
29774;SDS011;16676;51.202;6.774;2022-10-12T14:09:34;8.15;;;3.05;;
29774;SDS011;16676;51.202;6.774;2022-10-12T14:13:44;7.60;;;3.17;;
29774;SDS011;16676;51.202;6.774;2022-10-12T14:17:47;9.25;;;3.05;;
29774;SDS011;16676;51.202;6.774;2022-10-12T14:21:52;5.65;;;2.78;;
29774;SDS011;16676;51.202;6.774;2022-10-12T14:25:55;8.10;;;3.08;;
29774;SDS011;16676;51.202;6.774;2022-10-12T14:30:03;7.25;;;2.58;;
29774;SDS011;16676;51.202;6.774;2022-10-12T14:34:22;7.93;;;3.00;;
29774;SDS011;16676;51.202;6.774;2022-10-12T14:38:52;10.23;;;3.00;;
29774;SDS011;16676;51.202;6.774;2022-10-12T14:42:57;7.68;;;2.83;;
29774;SDS011;16676;51.202;6.774;2022-10-12T14:47:03;7.45;;;2.60;;
29774;SDS011;16676;51.202;6.774;2022-10-12T14:51:15;9.02;;;2.80;;
29774;SDS011;16676;51.202;6.774;2022-10-12T14:55:19;6.45;;;2.42;;
29774;SDS011;16676;51.202;6.774;2022-10-12T14:59:23;8.40;;;2.70;;
29774;SDS011;16676;51.202;6.774;2022-10-12T15:03:24;8.50;;;2.53;;
29774;SDS011;16676;51.202;6.774;2022-10-12T15:07:28;7.28;;;2.75;;
29774;SDS011;16676;51.202;6.774;2022-10-12T15:11:33;7.93;;;2.70;;
29774;SDS011;16676;51.202;6.774;2022-10-12T15:15:36;8.98;;;3.00;;
29774;SDS011;16676;51.202;6.774;2022-10-12T15:19:41;12.65;;;3.55;;
29774;SDS011;16676;51.202;6.774;2022-10-12T15:23:44;7.05;;;3.17;;
29774;SDS011;16676;51.202;6.774;2022-10-12T15:27:48;6.75;;;3.10;;
29774;SDS011;16676;51.202;6.774;2022-10-12T15:31:50;5.15;;;3.08;;
29774;SDS011;16676;51.202;6.774;2022-10-12T15:35:52;11.95;;;3.20;;
29774;SDS011;16676;51.202;6.774;2022-10-12T15:39:54;10.55;;;3.35;;
29774;SDS011;16676;51.202;6.774;2022-10-12T15:43:58;8.07;;;3.08;;
29774;SDS011;16676;51.202;6.774;2022-10-12T15:48:00;8.75;;;3.67;;
29774;SDS011;16676;51.202;6.774;2022-10-12T15:52:05;7.40;;;2.70;;
29774;SDS011;16676;51.202;6.774;2022-10-12T15:56:10;7.10;;;2.60;;
29774;SDS011;16676;51.202;6.774;2022-10-12T16:00:15;6.28;;;2.80;;
29774;SDS011;16676;51.202;6.774;2022-10-12T16:04:19;6.63;;;2.70;;
29774;SDS011;16676;51.202;6.774;2022-10-12T16:08:21;4.85;;;2.20;;
29774;SDS011;16676;51.202;6.774;2022-10-12T16:12:23;4.97;;;2.58;;
29774;SDS011;16676;51.202;6.774;2022-10-12T16:16:27;8.88;;;3.60;;
29774;SDS011;16676;51.202;6.774;2022-10-12T16:20:31;9.57;;;3.88;;
29774;SDS011;16676;51.202;6.774;2022-10-12T16:24:35;8.82;;;3.83;;
29774;SDS011;16676;51.202;6.774;2022-10-12T16:28:37;7.60;;;4.10;;
29774;SDS011;16676;51.202;6.774;2022-10-12T16:32:41;13.55;;;4.13;;
29774;SDS011;16676;51.202;6.774;2022-10-12T16:36:43;9.95;;;4.40;;
29774;SDS011;16676;51.202;6.774;2022-10-12T16:40:45;9.75;;;4.43;;
29774;SDS011;16676;51.202;6.774;2022-10-12T16:44:49;12.75;;;4.57;;
29774;SDS011;16676;51.202;6.774;2022-10-12T16:48:52;13.70;;;4.75;;
29774;SDS011;16676;51.202;6.774;2022-10-12T16:52:54;9.40;;;4.30;;
29774;SDS011;16676;51.202;6.774;2022-10-12T16:56:56;14.98;;;5.22;;
29774;SDS011;16676;51.202;6.774;2022-10-12T17:01:05;10.32;;;5.05;;
29774;SDS011;16676;51.202;6.774;2022-10-12T17:05:10;12.45;;;5.38;;
29774;SDS011;16676;51.202;6.774;2022-10-12T17:09:11;13.90;;;4.95;;
29774;SDS011;16676;51.202;6.774;2022-10-12T17:13:13;13.32;;;5.03;;
29774;SDS011;16676;51.202;6.774;2022-10-12T17:17:16;14.95;;;5.78;;
29774;SDS011;16676;51.202;6.774;2022-10-12T17:21:19;11.68;;;5.32;;
29774;SDS011;16676;51.202;6.774;2022-10-12T17:25:21;10.63;;;5.53;;
29774;SDS011;16676;51.202;6.774;2022-10-12T17:29:24;11.30;;;4.93;;
29774;SDS011;16676;51.202;6.774;2022-10-12T17:33:26;10.60;;;4.32;;
29774;SDS011;16676;51.202;6.774;2022-10-12T17:37:30;8.43;;;4.22;;
29774;SDS011;16676;51.202;6.774;2022-10-12T17:41:32;9.50;;;3.50;;
29774;SDS011;16676;51.202;6.774;2022-10-12T17:45:34;9.18;;;3.42;;
29774;SDS011;16676;51.202;6.774;2022-10-12T17:49:39;6.63;;;3.45;;
29774;SDS011;16676;51.202;6.774;2022-10-12T17:53:42;7.32;;;3.40;;
29774;SDS011;16676;51.202;6.774;2022-10-12T17:57:44;7.65;;;3.25;;
29774;SDS011;16676;51.202;6.774;2022-10-12T18:01:47;6.63;;;3.42;;
29774;SDS011;16676;51.202;6.774;2022-10-12T18:05:49;6.70;;;3.22;;
29774;SDS011;16676;51.202;6.774;2022-10-12T18:09:52;7.65;;;3.38;;
29774;SDS011;16676;51.202;6.774;2022-10-12T18:13:55;9.10;;;3.63;;
29774;SDS011;16676;51.202;6.774;2022-10-12T18:17:57;9.20;;;3.63;;
29774;SDS011;16676;51.202;6.774;2022-10-12T18:21:59;7.68;;;3.45;;
29774;SDS011;16676;51.202;6.774;2022-10-12T18:26:03;7.07;;;3.72;;
29774;SDS011;16676;51.202;6.774;2022-10-12T18:30:08;7.82;;;3.10;;
29774;SDS011;16676;51.202;6.774;2022-10-12T18:34:10;7.57;;;3.33;;
29774;SDS011;16676;51.202;6.774;2022-10-12T18:38:12;5.95;;;3.10;;
29774;SDS011;16676;51.202;6.774;2022-10-12T18:42:16;5.07;;;3.00;;
29774;SDS011;16676;51.202;6.774;2022-10-12T18:46:18;4.70;;;2.85;;
29774;SDS011;16676;51.202;6.774;2022-10-12T18:50:20;6.20;;;3.25;;
29774;SDS011;16676;51.202;6.774;2022-10-12T18:54:22;5.00;;;2.80;;
29774;SDS011;16676;51.202;6.774;2022-10-12T18:58:25;6.88;;;2.72;;
29774;SDS011;16676;51.202;6.774;2022-10-12T19:02:27;5.38;;;2.75;;
29774;SDS011;16676;51.202;6.774;2022-10-12T19:06:30;4.70;;;2.78;;
29774;SDS011;16676;51.202;6.774;2022-10-12T19:10:37;4.38;;;2.75;;
29774;SDS011;16676;51.202;6.774;2022-10-12T19:14:41;4.95;;;2.63;;
29774;SDS011;16676;51.202;6.774;2022-10-12T19:18:43;5.90;;;3.10;;
29774;SDS011;16676;51.202;6.774;2022-10-12T19:22:45;4.68;;;3.10;;
29774;SDS011;16676;51.202;6.774;2022-10-12T19:26:47;4.60;;;2.50;;
29774;SDS011;16676;51.202;6.774;2022-10-12T19:30:50;4.50;;;2.80;;
29774;SDS011;16676;51.202;6.774;2022-10-12T19:34:52;4.75;;;2.55;;
29774;SDS011;16676;51.202;6.774;2022-10-12T19:38:54;5.93;;;3.05;;
29774;SDS011;16676;51.202;6.774;2022-10-12T19:42:57;5.40;;;3.20;;
29774;SDS011;16676;51.202;6.774;2022-10-12T19:47:00;14.00;;;5.85;;
29774;SDS011;16676;51.202;6.774;2022-10-12T19:51:03;19.70;;;7.43;;
29774;SDS011;16676;51.202;6.774;2022-10-12T19:55:06;23.92;;;6.95;;
29774;SDS011;16676;51.202;6.774;2022-10-12T19:59:11;17.08;;;7.13;;
29774;SDS011;16676;51.202;6.774;2022-10-12T20:03:14;16.83;;;7.32;;
29774;SDS011;16676;51.202;6.774;2022-10-12T20:07:16;17.35;;;6.50;;
29774;SDS011;16676;51.202;6.774;2022-10-12T20:11:18;22.00;;;7.10;;
29774;SDS011;16676;51.202;6.774;2022-10-12T20:15:22;15.93;;;6.53;;
29774;SDS011;16676;51.202;6.774;2022-10-12T20:19:25;21.05;;;7.80;;
29774;SDS011;16676;51.202;6.774;2022-10-12T20:23:27;14.77;;;6.75;;
29774;SDS011;16676;51.202;6.774;2022-10-12T20:27:30;19.17;;;7.20;;
29774;SDS011;16676;51.202;6.774;2022-10-12T20:31:32;18.02;;;7.00;;
29774;SDS011;16676;51.202;6.774;2022-10-12T20:35:36;21.55;;;6.80;;
29774;SDS011;16676;51.202;6.774;2022-10-12T20:39:38;15.25;;;6.68;;
29774;SDS011;16676;51.202;6.774;2022-10-12T20:43:40;17.17;;;6.70;;
29774;SDS011;16676;51.202;6.774;2022-10-12T20:47:42;15.02;;;6.65;;
29774;SDS011;16676;51.202;6.774;2022-10-12T20:51:45;14.20;;;6.32;;
29774;SDS011;16676;51.202;6.774;2022-10-12T20:55:47;13.45;;;6.28;;
29774;SDS011;16676;51.202;6.774;2022-10-12T20:59:49;12.93;;;5.60;;
29774;SDS011;16676;51.202;6.774;2022-10-12T21:03:52;14.60;;;5.95;;
29774;SDS011;16676;51.202;6.774;2022-10-12T21:07:55;16.10;;;5.90;;
29774;SDS011;16676;51.202;6.774;2022-10-12T21:11:57;20.55;;;6.57;;
29774;SDS011;16676;51.202;6.774;2022-10-12T21:15:59;13.68;;;5.50;;
29774;SDS011;16676;51.202;6.774;2022-10-12T21:20:02;18.48;;;6.50;;
29774;SDS011;16676;51.202;6.774;2022-10-12T21:24:06;15.18;;;5.85;;
29774;SDS011;16676;51.202;6.774;2022-10-12T21:28:09;14.82;;;5.82;;
29774;SDS011;16676;51.202;6.774;2022-10-12T21:32:11;12.15;;;5.90;;
29774;SDS011;16676;51.202;6.774;2022-10-12T21:36:14;10.43;;;5.38;;
29774;SDS011;16676;51.202;6.774;2022-10-12T21:40:21;14.02;;;6.25;;
29774;SDS011;16676;51.202;6.774;2022-10-12T21:44:23;13.32;;;5.63;;
29774;SDS011;16676;51.202;6.774;2022-10-12T21:48:25;13.00;;;5.55;;
29774;SDS011;16676;51.202;6.774;2022-10-12T21:52:27;13.82;;;5.70;;
29774;SDS011;16676;51.202;6.774;2022-10-12T21:56:31;12.07;;;5.45;;
29774;SDS011;16676;51.202;6.774;2022-10-12T22:00:34;12.88;;;5.20;;
29774;SDS011;16676;51.202;6.774;2022-10-12T22:04:36;13.18;;;5.03;;
29774;SDS011;16676;51.202;6.774;2022-10-12T22:08:38;11.25;;;4.95;;
29774;SDS011;16676;51.202;6.774;2022-10-12T22:12:41;14.63;;;5.70;;
29774;SDS011;16676;51.202;6.774;2022-10-12T22:16:43;9.32;;;4.78;;
29774;SDS011;16676;51.202;6.774;2022-10-12T22:20:45;12.65;;;5.35;;
29774;SDS011;16676;51.202;6.774;2022-10-12T22:24:47;12.75;;;5.82;;
29774;SDS011;16676;51.202;6.774;2022-10-12T22:28:50;13.23;;;5.57;;
29774;SDS011;16676;51.202;6.774;2022-10-12T22:32:52;12.15;;;5.53;;
29774;SDS011;16676;51.202;6.774;2022-10-12T22:36:54;10.90;;;5.03;;
29774;SDS011;16676;51.202;6.774;2022-10-12T22:40:57;10.40;;;4.90;;
29774;SDS011;16676;51.202;6.774;2022-10-12T22:45:01;11.52;;;5.38;;
29774;SDS011;16676;51.202;6.774;2022-10-12T22:49:03;9.60;;;4.93;;
29774;SDS011;16676;51.202;6.774;2022-10-12T22:53:05;9.13;;;4.60;;
29774;SDS011;16676;51.202;6.774;2022-10-12T22:57:07;11.00;;;5.00;;
29774;SDS011;16676;51.202;6.774;2022-10-12T23:01:11;8.88;;;5.25;;
29774;SDS011;16676;51.202;6.774;2022-10-12T23:05:14;11.98;;;5.40;;
29774;SDS011;16676;51.202;6.774;2022-10-12T23:09:16;9.25;;;4.55;;
29774;SDS011;16676;51.202;6.774;2022-10-12T23:13:19;9.25;;;4.60;;
29774;SDS011;16676;51.202;6.774;2022-10-12T23:17:22;10.98;;;4.95;;
29774;SDS011;16676;51.202;6.774;2022-10-12T23:21:24;9.02;;;4.45;;
29774;SDS011;16676;51.202;6.774;2022-10-12T23:25:27;9.82;;;4.72;;
29774;SDS011;16676;51.202;6.774;2022-10-12T23:29:29;8.43;;;4.53;;
29774;SDS011;16676;51.202;6.774;2022-10-12T23:33:33;10.57;;;5.05;;
29774;SDS011;16676;51.202;6.774;2022-10-12T23:37:35;7.88;;;4.60;;
29774;SDS011;16676;51.202;6.774;2022-10-12T23:41:37;9.25;;;4.38;;
29774;SDS011;16676;51.202;6.774;2022-10-12T23:45:39;8.07;;;4.55;;
29774;SDS011;16676;51.202;6.774;2022-10-12T23:49:44;8.35;;;4.20;;
29774;SDS011;16676;51.202;6.774;2022-10-12T23:53:46;8.05;;;4.20;;
29774;SDS011;16676;51.202;6.774;2022-10-12T23:57:48;9.02;;;4.35;;
